sensor_id;sensor_type;location;lat;lon;timestamp;pressure;altitude;pressure_sealevel;temperature;humidity
71109;BME280;59614;51.012;-1.648;2022-11-20T00:00:25;100217.66;;;5.00;100.00
71109;BME280;59614;51.012;-1.648;2022-11-20T00:02:50;100215.91;;;5.04;100.00
71109;BME280;59614;51.012;-1.648;2022-11-20T00:05:16;100207.19;;;5.02;100.00
71109;BME280;59614;51.012;-1.648;2022-11-20T00:07:42;100209.78;;;4.97;100.00
71109;BME280;59614;51.012;-1.648;2022-11-20T00:10:07;100206.34;;;5.04;100.00
71109;BME280;59614;51.012;-1.648;2022-11-20T00:12:33;100215.94;;;5.08;100.00
71109;BME280;59614;51.012;-1.648;2022-11-20T00:14:59;100209.81;;;5.00;100.00
71109;BME280;59614;51.012;-1.648;2022-11-20T00:17:24;100217.72;;;5.11;100.00
71109;BME280;59614;51.012;-1.648;2022-11-20T00:19:49;100221.22;;;5.32;100.00
71109;BME280;59614;51.012;-1.648;2022-11-20T00:22:15;100216.88;;;5.35;100.00
71109;BME280;59614;51.012;-1.648;2022-11-20T00:24:40;100215.16;;;5.45;100.00
71109;BME280;59614;51.012;-1.648;2022-11-20T00:27:06;100197.69;;;5.39;100.00
71109;BME280;59614;51.012;-1.648;2022-11-20T00:29:31;100209.88;;;5.26;100.00
71109;BME280;59614;51.012;-1.648;2022-11-20T00:31:56;100193.31;;;5.32;100.00
71109;BME280;59614;51.012;-1.648;2022-11-20T00:34:22;100190.69;;;5.32;100.00
71109;BME280;59614;51.012;-1.648;2022-11-20T00:36:47;100180.22;;;5.32;100.00
71109;BME280;59614;51.012;-1.648;2022-11-20T00:39:13;100184.59;;;5.33;100.00
71109;BME280;59614;51.012;-1.648;2022-11-20T00:41:38;100178.50;;;5.28;100.00
71109;BME280;59614;51.012;-1.648;2022-11-20T00:44:04;100173.22;;;5.26;100.00
71109;BME280;59614;51.012;-1.648;2022-11-20T00:46:29;100170.63;;;5.31;100.00
71109;BME280;59614;51.012;-1.648;2022-11-20T00:48:55;100168.03;;;5.39;100.00
71109;BME280;59614;51.012;-1.648;2022-11-20T00:51:23;100168.88;;;5.29;100.00
71109;BME280;59614;51.012;-1.648;2022-11-20T00:53:49;100168.88;;;5.29;100.00
71109;BME280;59614;51.012;-1.648;2022-11-20T00:56:17;100162.78;;;5.37;100.00
71109;BME280;59614;51.012;-1.648;2022-11-20T00:58:43;100160.16;;;5.40;100.00
71109;BME280;59614;51.012;-1.648;2022-11-20T01:01:11;100159.28;;;5.32;100.00
71109;BME280;59614;51.012;-1.648;2022-11-20T01:03:39;100151.44;;;5.41;100.00
71109;BME280;59614;51.012;-1.648;2022-11-20T01:06:17;100136.59;;;5.40;100.00
71109;BME280;59614;51.012;-1.648;2022-11-20T01:08:43;100142.72;;;5.47;100.00
71109;BME280;59614;51.012;-1.648;2022-11-20T01:11:11;100143.59;;;5.55;100.00
71109;BME280;59614;51.012;-1.648;2022-11-20T01:13:37;100139.25;;;5.62;100.00
71109;BME280;59614;51.012;-1.648;2022-11-20T01:18:30;100131.38;;;5.40;100.00
71109;BME280;59614;51.012;-1.648;2022-11-20T01:20:55;100133.13;;;5.32;100.00
71109;BME280;59614;51.012;-1.648;2022-11-20T01:23:20;100131.38;;;5.34;100.00
71109;BME280;59614;51.012;-1.648;2022-11-20T01:25:46;100128.75;;;5.44;100.00
71109;BME280;59614;51.012;-1.648;2022-11-20T01:28:11;100134.88;;;5.44;100.00
71109;BME280;59614;51.012;-1.648;2022-11-20T01:30:37;100139.22;;;5.51;100.00
71109;BME280;59614;51.012;-1.648;2022-11-20T01:33:02;100127.00;;;5.24;100.00
71109;BME280;59614;51.012;-1.648;2022-11-20T01:35:27;100125.28;;;5.31;100.00
71109;BME280;59614;51.012;-1.648;2022-11-20T01:37:53;100120.06;;;5.38;100.00
71109;BME280;59614;51.012;-1.648;2022-11-20T01:40:18;100116.53;;;5.43;100.00
71109;BME280;59614;51.012;-1.648;2022-11-20T01:42:47;100113.94;;;5.22;100.00
71109;BME280;59614;51.012;-1.648;2022-11-20T01:49:00;100091.25;;;5.41;100.00
71109;BME280;59614;51.012;-1.648;2022-11-20T01:54:09;100081.63;;;5.57;100.00
71109;BME280;59614;51.012;-1.648;2022-11-20T01:56:38;100074.63;;;5.60;100.00
71109;BME280;59614;51.012;-1.648;2022-11-20T01:59:07;100072.00;;;5.67;100.00
71109;BME280;59614;51.012;-1.648;2022-11-20T02:01:34;100076.38;;;5.73;100.00
71109;BME280;59614;51.012;-1.648;2022-11-20T02:04:00;100066.78;;;5.70;100.00
71109;BME280;59614;51.012;-1.648;2022-11-20T02:06:29;100052.81;;;5.68;100.00
71109;BME280;59614;51.012;-1.648;2022-11-20T02:08:56;100057.19;;;5.69;100.00
71109;BME280;59614;51.012;-1.648;2022-11-20T02:11:22;100056.31;;;5.70;100.00
71109;BME280;59614;51.012;-1.648;2022-11-20T02:13:48;100050.22;;;5.67;100.00
71109;BME280;59614;51.012;-1.648;2022-11-20T02:16:45;100044.09;;;5.54;100.00
71109;BME280;59614;51.012;-1.648;2022-11-20T02:19:22;100037.13;;;5.59;100.00
71109;BME280;59614;51.012;-1.648;2022-11-20T02:24:25;100035.38;;;5.52;100.00
71109;BME280;59614;51.012;-1.648;2022-11-20T02:27:01;100035.38;;;5.58;100.00
71109;BME280;59614;51.012;-1.648;2022-11-20T02:32:28;100019.66;;;5.64;100.00
71109;BME280;59614;51.012;-1.648;2022-11-20T02:34:54;100012.66;;;5.72;100.00
71109;BME280;59614;51.012;-1.648;2022-11-20T02:37:21;100019.66;;;5.74;100.00
71109;BME280;59614;51.012;-1.648;2022-11-20T02:39:49;100007.41;;;5.74;100.00
71109;BME280;59614;51.012;-1.648;2022-11-20T02:42:15;100004.78;;;5.85;100.00
71109;BME280;59614;51.012;-1.648;2022-11-20T02:44:40;100004.75;;;5.80;100.00
71109;BME280;59614;51.012;-1.648;2022-11-20T02:47:06;100003.00;;;5.87;100.00
71109;BME280;59614;51.012;-1.648;2022-11-20T02:49:32;100001.25;;;5.91;100.00
71109;BME280;59614;51.012;-1.648;2022-11-20T02:51:58;99986.38;;;5.99;100.00
71109;BME280;59614;51.012;-1.648;2022-11-20T02:54:24;99981.16;;;5.94;100.00
71109;BME280;59614;51.012;-1.648;2022-11-20T02:56:49;99975.91;;;6.02;100.00
71109;BME280;59614;51.012;-1.648;2022-11-20T02:59:14;99968.00;;;6.08;100.00
71109;BME280;59614;51.012;-1.648;2022-11-20T03:01:40;99966.25;;;6.07;100.00
71109;BME280;59614;51.012;-1.648;2022-11-20T03:04:05;99963.63;;;6.13;100.00
71109;BME280;59614;51.012;-1.648;2022-11-20T03:06:31;99958.31;;;6.23;100.00
71109;BME280;59614;51.012;-1.648;2022-11-20T03:08:57;99962.66;;;6.28;100.00
71109;BME280;59614;51.012;-1.648;2022-11-20T03:11:22;99948.72;;;6.25;100.00
71109;BME280;59614;51.012;-1.648;2022-11-20T03:13:47;99940.84;;;6.23;100.00
71109;BME280;59614;51.012;-1.648;2022-11-20T03:16:18;99936.41;;;6.33;100.00
71109;BME280;59614;51.012;-1.648;2022-11-20T03:18:44;99933.78;;;6.34;100.00
71109;BME280;59614;51.012;-1.648;2022-11-20T03:21:11;99930.22;;;6.42;100.00
71109;BME280;59614;51.012;-1.648;2022-11-20T03:23:37;99920.59;;;6.44;100.00
71109;BME280;59614;51.012;-1.648;2022-11-20T03:26:24;99922.34;;;6.46;100.00
71109;BME280;59614;51.012;-1.648;2022-11-20T03:29:00;99918.78;;;6.54;100.00
71109;BME280;59614;51.012;-1.648;2022-11-20T03:31:29;99919.59;;;6.60;100.00
71109;BME280;59614;51.012;-1.648;2022-11-20T03:33:59;99919.53;;;6.67;100.00
71109;BME280;59614;51.012;-1.648;2022-11-20T03:36:25;99908.19;;;6.66;100.00
71109;BME280;59614;51.012;-1.648;2022-11-20T03:38:53;99898.47;;;6.76;100.00
71109;BME280;59614;51.012;-1.648;2022-11-20T03:41:25;99894.91;;;6.86;100.00
71109;BME280;59614;51.012;-1.648;2022-11-20T03:43:56;99894.81;;;6.92;100.00
71109;BME280;59614;51.012;-1.648;2022-11-20T03:46:22;99891.19;;;7.06;100.00
71109;BME280;59614;51.012;-1.648;2022-11-20T03:48:49;99884.00;;;7.23;100.00
71109;BME280;59614;51.012;-1.648;2022-11-20T03:51:18;99875.25;;;7.24;100.00
71109;BME280;59614;51.012;-1.648;2022-11-20T03:53:46;99879.53;;;7.33;100.00
71109;BME280;59614;51.012;-1.648;2022-11-20T03:56:13;99878.59;;;7.36;100.00
71109;BME280;59614;51.012;-1.648;2022-11-20T03:58:40;99870.63;;;7.44;100.00
71109;BME280;59614;51.012;-1.648;2022-11-20T04:03:35;99850.34;;;7.56;100.00
71109;BME280;59614;51.012;-1.648;2022-11-20T04:06:06;99848.50;;;7.63;100.00
71109;BME280;59614;51.012;-1.648;2022-11-20T04:08:32;99834.50;;;7.61;100.00
71109;BME280;59614;51.012;-1.648;2022-11-20T04:13:36;99831.84;;;7.64;100.00
71109;BME280;59614;51.012;-1.648;2022-11-20T04:16:02;99836.34;;;7.54;100.00
71109;BME280;59614;51.012;-1.648;2022-11-20T04:18:27;99826.97;;;7.35;100.00
71109;BME280;59614;51.012;-1.648;2022-11-20T04:20:52;99832.22;;;7.36;100.00
71109;BME280;59614;51.012;-1.648;2022-11-20T04:23:18;99839.19;;;7.39;100.00
71109;BME280;59614;51.012;-1.648;2022-11-20T04:25:43;99826.13;;;7.34;100.00
71109;BME280;59614;51.012;-1.648;2022-11-20T04:28:09;99819.06;;;7.38;100.00
71109;BME280;59614;51.012;-1.648;2022-11-20T04:30:34;99822.53;;;7.41;100.00
71109;BME280;59614;51.012;-1.648;2022-11-20T04:33:00;99823.22;;;7.54;100.00
71109;BME280;59614;51.012;-1.648;2022-11-20T04:35:25;99820.41;;;7.67;100.00
71109;BME280;59614;51.012;-1.648;2022-11-20T04:37:51;99813.25;;;7.78;100.00
71109;BME280;59614;51.012;-1.648;2022-11-20T04:40:17;99797.31;;;7.91;100.00
71109;BME280;59614;51.012;-1.648;2022-11-20T04:42:42;99793.75;;;7.95;100.00
71109;BME280;59614;51.012;-1.648;2022-11-20T04:45:08;99794.47;;;8.04;100.00
71109;BME280;59614;51.012;-1.648;2022-11-20T04:47:33;99795.31;;;8.07;100.00
71109;BME280;59614;51.012;-1.648;2022-11-20T04:49:59;99785.69;;;8.06;100.00
71109;BME280;59614;51.012;-1.648;2022-11-20T04:52:24;99779.56;;;8.05;100.00
71109;BME280;59614;51.012;-1.648;2022-11-20T04:54:50;99771.66;;;8.07;100.00
71109;BME280;59614;51.012;-1.648;2022-11-20T04:57:18;99761.97;;;8.09;100.00
71109;BME280;59614;51.012;-1.648;2022-11-20T04:59:43;99766.25;;;8.14;100.00
71109;BME280;59614;51.012;-1.648;2022-11-20T05:02:09;99768.03;;;8.12;100.00
71109;BME280;59614;51.012;-1.648;2022-11-20T05:04:35;99762.75;;;8.15;100.00
71109;BME280;59614;51.012;-1.648;2022-11-20T05:07:00;99759.22;;;8.16;100.00
71109;BME280;59614;51.012;-1.648;2022-11-20T05:09:26;99783.69;;;8.22;100.00
71109;BME280;59614;51.012;-1.648;2022-11-20T05:11:51;99793.28;;;8.23;100.00
71109;BME280;59614;51.012;-1.648;2022-11-20T05:14:17;99781.88;;;8.25;100.00
71109;BME280;59614;51.012;-1.648;2022-11-20T05:16:42;99782.75;;;8.23;100.00
71109;BME280;59614;51.012;-1.648;2022-11-20T05:19:08;99780.28;;;8.15;100.00
71109;BME280;59614;51.012;-1.648;2022-11-20T05:21:33;99786.53;;;8.09;100.00
71109;BME280;59614;51.012;-1.648;2022-11-20T05:23:59;99785.69;;;8.06;100.00
71109;BME280;59614;51.012;-1.648;2022-11-20T05:26:24;99793.69;;;7.99;100.00
71109;BME280;59614;51.012;-1.648;2022-11-20T05:28:51;99791.19;;;7.88;100.00
71109;BME280;59614;51.012;-1.648;2022-11-20T05:31:22;99799.34;;;7.73;100.00
71109;BME280;59614;51.012;-1.648;2022-11-20T05:33:48;99794.25;;;7.61;100.00
71109;BME280;59614;51.012;-1.648;2022-11-20T05:36:14;99790.00;;;7.52;100.00
71109;BME280;59614;51.012;-1.648;2022-11-20T05:38:41;99797.16;;;7.40;100.00
71109;BME280;59614;51.012;-1.648;2022-11-20T05:41:12;99798.25;;;7.22;100.00
71109;BME280;59614;51.012;-1.648;2022-11-20T05:43:39;99801.72;;;7.28;100.00
71109;BME280;59614;51.012;-1.648;2022-11-20T05:46:07;99800.09;;;7.17;100.00
71109;BME280;59614;51.012;-1.648;2022-11-20T05:48:36;99797.50;;;7.14;100.00
71109;BME280;59614;51.012;-1.648;2022-11-20T05:51:03;99802.84;;;7.08;100.00
71109;BME280;59614;51.012;-1.648;2022-11-20T05:53:29;99801.97;;;7.09;100.00
71109;BME280;59614;51.012;-1.648;2022-11-20T05:56:06;99802.91;;;7.02;100.00
71109;BME280;59614;51.012;-1.648;2022-11-20T05:58:33;99821.28;;;6.99;100.00
71109;BME280;59614;51.012;-1.648;2022-11-20T06:01:11;99825.66;;;7.00;100.00
71109;BME280;59614;51.012;-1.648;2022-11-20T06:03:37;99830.00;;;7.01;100.00
71109;BME280;59614;51.012;-1.648;2022-11-20T06:06:03;99836.03;;;7.10;100.00
71109;BME280;59614;51.012;-1.648;2022-11-20T06:08:30;99833.47;;;7.06;100.00
71109;BME280;59614;51.012;-1.648;2022-11-20T06:10:55;99840.50;;;7.02;100.00
71109;BME280;59614;51.012;-1.648;2022-11-20T06:13:22;99840.50;;;7.01;100.00
71109;BME280;59614;51.012;-1.648;2022-11-20T06:15:49;99837.03;;;6.99;100.00
71109;BME280;59614;51.012;-1.648;2022-11-20T06:18:15;99848.38;;;7.01;100.00
71109;BME280;59614;51.012;-1.648;2022-11-20T06:20:40;99849.25;;;7.03;100.00
71109;BME280;59614;51.012;-1.648;2022-11-20T06:23:05;99851.00;;;7.01;100.00
71109;BME280;59614;51.012;-1.648;2022-11-20T06:25:31;99850.16;;;7.00;100.00
71109;BME280;59614;51.012;-1.648;2022-11-20T06:27:56;99861.50;;;7.01;100.00
71109;BME280;59614;51.012;-1.648;2022-11-20T06:30:22;99857.22;;;6.93;100.00
71109;BME280;59614;51.012;-1.648;2022-11-20T06:32:47;99856.38;;;6.88;100.00
71109;BME280;59614;51.012;-1.648;2022-11-20T06:35:12;99854.75;;;6.78;100.00
71109;BME280;59614;51.012;-1.648;2022-11-20T06:37:38;99866.13;;;6.77;100.00
71109;BME280;59614;51.012;-1.648;2022-11-20T06:40:04;99858.31;;;6.74;100.00
71109;BME280;59614;51.012;-1.648;2022-11-20T06:42:29;99858.31;;;6.71;100.00
71109;BME280;59614;51.012;-1.648;2022-11-20T06:44:55;99861.81;;;6.70;100.00
71109;BME280;59614;51.012;-1.648;2022-11-20T06:47:20;99874.06;;;6.68;100.00
71109;BME280;59614;51.012;-1.648;2022-11-20T06:49:46;99868.00;;;6.64;100.00
71109;BME280;59614;51.012;-1.648;2022-11-20T06:52:11;99868.94;;;6.57;100.00
71109;BME280;59614;51.012;-1.648;2022-11-20T06:54:36;99871.56;;;6.57;100.00
71109;BME280;59614;51.012;-1.648;2022-11-20T06:57:02;99866.38;;;6.52;100.00
71109;BME280;59614;51.012;-1.648;2022-11-20T06:59:27;99869.81;;;6.57;100.00
71109;BME280;59614;51.012;-1.648;2022-11-20T07:01:53;99868.06;;;6.58;100.00
71109;BME280;59614;51.012;-1.648;2022-11-20T07:04:18;99869.00;;;6.52;100.00
71109;BME280;59614;51.012;-1.648;2022-11-20T07:06:43;99870.78;;;6.44;100.00
71109;BME280;59614;51.012;-1.648;2022-11-20T07:09:09;99870.84;;;6.38;100.00
71109;BME280;59614;51.012;-1.648;2022-11-20T07:11:34;99880.41;;;6.46;100.00
71109;BME280;59614;51.012;-1.648;2022-11-20T07:14:00;99879.56;;;6.41;100.00
71109;BME280;59614;51.012;-1.648;2022-11-20T07:16:25;99883.97;;;6.34;100.00
71109;BME280;59614;51.012;-1.648;2022-11-20T07:18:51;99883.19;;;6.23;100.00
71109;BME280;59614;51.012;-1.648;2022-11-20T07:21:17;99879.66;;;6.27;100.00
71109;BME280;59614;51.012;-1.648;2022-11-20T07:23:42;99882.28;;;6.27;100.00
71109;BME280;59614;51.012;-1.648;2022-11-20T07:26:10;99881.41;;;6.27;100.00
71109;BME280;59614;51.012;-1.648;2022-11-20T07:28:36;99891.03;;;6.26;100.00
71109;BME280;59614;51.012;-1.648;2022-11-20T07:31:02;99893.69;;;6.20;100.00
71109;BME280;59614;51.012;-1.648;2022-11-20T07:33:28;99900.72;;;6.15;100.00
71109;BME280;59614;51.012;-1.648;2022-11-20T07:35:53;99908.63;;;6.10;100.00
71109;BME280;59614;51.012;-1.648;2022-11-20T07:38:19;99904.28;;;6.05;100.00
71109;BME280;59614;51.012;-1.648;2022-11-20T07:40:44;99911.28;;;6.02;100.00
71109;BME280;59614;51.012;-1.648;2022-11-20T07:43:09;99921.78;;;5.96;100.00
71109;BME280;59614;51.012;-1.648;2022-11-20T07:45:35;99922.69;;;5.91;100.00
71109;BME280;59614;51.012;-1.648;2022-11-20T07:48:00;99927.91;;;5.87;100.00
71109;BME280;59614;51.012;-1.648;2022-11-20T07:50:26;99927.94;;;5.84;100.00
71109;BME280;59614;51.012;-1.648;2022-11-20T07:52:51;99925.34;;;5.80;100.00
71109;BME280;59614;51.012;-1.648;2022-11-20T07:55:17;99921.84;;;5.81;100.00
71109;BME280;59614;51.012;-1.648;2022-11-20T07:57:43;99918.34;;;5.76;100.00
71109;BME280;59614;51.012;-1.648;2022-11-20T08:00:10;99926.25;;;5.72;100.00
71109;BME280;59614;51.012;-1.648;2022-11-20T08:02:42;99925.34;;;5.80;100.00
71109;BME280;59614;51.012;-1.648;2022-11-20T08:05:08;99920.91;;;5.88;100.00
71109;BME280;59614;51.012;-1.648;2022-11-20T08:07:38;99927.00;;;5.99;100.00
71109;BME280;59614;51.012;-1.648;2022-11-20T08:10:04;99937.41;;;6.09;100.00
71109;BME280;59614;51.012;-1.648;2022-11-20T08:12:29;99936.53;;;6.16;100.00
71109;BME280;59614;51.012;-1.648;2022-11-20T08:15:13;99939.13;;;6.19;100.00
71109;BME280;59614;51.012;-1.648;2022-11-20T08:17:39;99953.06;;;6.21;100.00
71109;BME280;59614;51.012;-1.648;2022-11-20T08:20:04;99956.56;;;6.26;100.00
71109;BME280;59614;51.012;-1.648;2022-11-20T08:22:30;99958.31;;;6.23;100.00
71109;BME280;59614;51.012;-1.648;2022-11-20T08:24:55;99949.59;;;6.24;100.00
71109;BME280;59614;51.012;-1.648;2022-11-20T08:27:21;99959.16;;;6.29;100.00
71109;BME280;59614;51.012;-1.648;2022-11-20T08:29:46;99964.41;;;6.29;100.00
71109;BME280;59614;51.012;-1.648;2022-11-20T08:32:11;99970.47;;;6.31;100.00
71109;BME280;59614;51.012;-1.648;2022-11-20T08:34:37;99976.63;;;6.30;100.00
71109;BME280;59614;51.012;-1.648;2022-11-20T08:37:03;99979.22;;;6.32;100.00
71109;BME280;59614;51.012;-1.648;2022-11-20T08:39:29;99978.34;;;6.31;100.00
71109;BME280;59614;51.012;-1.648;2022-11-20T08:41:54;99992.31;;;6.33;100.00
71109;BME280;59614;51.012;-1.648;2022-11-20T08:44:20;99993.97;;;6.50;100.00
71109;BME280;59614;51.012;-1.648;2022-11-20T08:46:45;99999.94;;;6.71;100.00
71109;BME280;59614;51.012;-1.648;2022-11-20T08:49:13;99999.78;;;6.89;100.00
71109;BME280;59614;51.012;-1.648;2022-11-20T08:51:39;100001.31;;;7.15;100.00
71109;BME280;59614;51.012;-1.648;2022-11-20T08:54:06;99996.75;;;7.36;100.00
71109;BME280;59614;51.012;-1.648;2022-11-20T08:56:32;100003.66;;;7.43;100.00
71109;BME280;59614;51.012;-1.648;2022-11-20T08:58:57;100007.97;;;7.49;100.00
71109;BME280;59614;51.012;-1.648;2022-11-20T09:01:25;100012.41;;;7.45;100.00
71109;BME280;59614;51.012;-1.648;2022-11-20T09:03:51;100011.59;;;7.40;100.00
71109;BME280;59614;51.012;-1.648;2022-11-20T09:06:17;100013.44;;;7.30;100.00
71109;BME280;59614;51.012;-1.648;2022-11-20T09:08:43;100009.97;;;7.23;100.00
71109;BME280;59614;51.012;-1.648;2022-11-20T09:11:09;100016.22;;;7.11;100.00
71109;BME280;59614;51.012;-1.648;2022-11-20T09:13:35;100017.09;;;7.12;100.00
71109;BME280;59614;51.012;-1.648;2022-11-20T09:16:04;100018.75;;;7.22;100.00
71109;BME280;59614;51.012;-1.648;2022-11-20T09:18:31;100023.94;;;7.29;100.00
71109;BME280;59614;51.012;-1.648;2022-11-20T09:21:02;100023.03;;;7.34;100.00
71109;BME280;59614;51.012;-1.648;2022-11-20T09:23:33;100030.78;;;7.45;100.00
71109;BME280;59614;51.012;-1.648;2022-11-20T09:26:17;100017.66;;;7.47;100.00
71109;BME280;59614;51.012;-1.648;2022-11-20T09:28:43;100018.47;;;7.53;100.00
71109;BME280;59614;51.012;-1.648;2022-11-20T09:31:14;100023.63;;;7.60;100.00
71109;BME280;59614;51.012;-1.648;2022-11-20T09:33:42;100023.63;;;7.63;100.00
71109;BME280;59614;51.012;-1.648;2022-11-20T09:36:08;100019.22;;;7.63;100.00
71109;BME280;59614;51.012;-1.648;2022-11-20T09:38:33;100014.75;;;7.70;100.00
71109;BME280;59614;51.012;-1.648;2022-11-20T09:41:04;100019.16;;;7.68;100.00
71109;BME280;59614;51.012;-1.648;2022-11-20T09:43:58;100029.66;;;7.68;100.00
71109;BME280;59614;51.012;-1.648;2022-11-20T09:51:58;100040.56;;;7.31;100.00
71109;BME280;59614;51.012;-1.648;2022-11-20T09:54:39;100034.47;;;7.25;100.00
71109;BME280;59614;51.012;-1.648;2022-11-20T09:57:11;100022.28;;;7.17;100.00
71109;BME280;59614;51.012;-1.648;2022-11-20T09:59:40;100027.38;;;7.37;100.00
71109;BME280;59614;51.012;-1.648;2022-11-20T10:02:30;100029.66;;;7.68;100.00
71109;BME280;59614;51.012;-1.648;2022-11-20T10:05:12;100033.75;;;7.97;100.00
71109;BME280;59614;51.012;-1.648;2022-11-20T10:10:15;100031.63;;;8.24;100.00
71109;BME280;59614;51.012;-1.648;2022-11-20T10:29:07;100012.56;;;9.26;100.00
71109;BME280;59614;51.012;-1.648;2022-11-20T10:31:41;100013.38;;;9.30;100.00
71109;BME280;59614;51.012;-1.648;2022-11-20T10:34:25;100014.59;;;9.10;100.00
71109;BME280;59614;51.012;-1.648;2022-11-20T10:36:58;100019.88;;;9.10;100.00
71109;BME280;59614;51.012;-1.648;2022-11-20T10:42:16;100013.69;;;9.13;100.00
71109;BME280;59614;51.012;-1.648;2022-11-20T10:44:57;100014.69;;;9.04;100.00
71109;BME280;59614;51.012;-1.648;2022-11-20T10:47:27;100015.38;;;9.16;100.00
71109;BME280;59614;51.012;-1.648;2022-11-20T10:49:57;100015.13;;;9.30;100.00
71109;BME280;59614;51.012;-1.648;2022-11-20T11:01:03;100006.69;;;9.59;100.00
71109;BME280;59614;51.012;-1.648;2022-11-20T11:03:30;100017.22;;;9.59;100.00
71109;BME280;59614;51.012;-1.648;2022-11-20T11:08:49;100022.28;;;9.71;100.00
71109;BME280;59614;51.012;-1.648;2022-11-20T11:13:47;100024.84;;;9.74;100.00
71109;BME280;59614;51.012;-1.648;2022-11-20T11:16:24;100029.97;;;9.82;100.00
71109;BME280;59614;51.012;-1.648;2022-11-20T11:18:50;100038.78;;;9.80;100.00
71109;BME280;59614;51.012;-1.648;2022-11-20T11:21:26;100035.44;;;9.71;100.00
71109;BME280;59614;51.012;-1.648;2022-11-20T11:24:00;100040.00;;;9.63;100.00
71109;BME280;59614;51.012;-1.648;2022-11-20T11:26:26;100032.81;;;9.71;100.00
71109;BME280;59614;51.012;-1.648;2022-11-20T11:29:03;100032.81;;;9.71;99.42
71109;BME280;59614;51.012;-1.648;2022-11-20T11:31:31;100026.69;;;9.69;100.00
71109;BME280;59614;51.012;-1.648;2022-11-20T11:34:08;100039.63;;;9.83;100.00
71109;BME280;59614;51.012;-1.648;2022-11-20T11:36:36;100033.50;;;9.81;99.52
71109;BME280;59614;51.012;-1.648;2022-11-20T11:39:03;100045.72;;;9.85;99.93
71109;BME280;59614;51.012;-1.648;2022-11-20T11:41:32;100041.44;;;9.80;100.00
71109;BME280;59614;51.012;-1.648;2022-11-20T11:44:28;100035.63;;;9.62;100.00
71109;BME280;59614;51.012;-1.648;2022-11-20T11:47:26;100034.91;;;9.54;100.00
71109;BME280;59614;51.012;-1.648;2022-11-20T11:50:27;100033.22;;;9.51;100.00
71109;BME280;59614;51.012;-1.648;2022-11-20T11:53:09;100028.78;;;9.52;100.00
71109;BME280;59614;51.012;-1.648;2022-11-20T11:58:50;100006.25;;;9.37;100.00
71109;BME280;59614;51.012;-1.648;2022-11-20T12:01:31;100013.75;;;9.57;100.00
71109;BME280;59614;51.012;-1.648;2022-11-20T12:04:13;100009.88;;;9.77;100.00
71109;BME280;59614;51.012;-1.648;2022-11-20T12:06:50;100004.66;;;9.73;99.63
71109;BME280;59614;51.012;-1.648;2022-11-20T12:09:20;100002.44;;;9.52;99.27
71109;BME280;59614;51.012;-1.648;2022-11-20T12:11:59;100002.13;;;9.69;100.00
71109;BME280;59614;51.012;-1.648;2022-11-20T12:14:35;100002.88;;;9.76;100.00
71109;BME280;59614;51.012;-1.648;2022-11-20T12:17:02;100008.34;;;9.65;98.69
71109;BME280;59614;51.012;-1.648;2022-11-20T12:19:30;100013.13;;;9.89;100.00
71109;BME280;59614;51.012;-1.648;2022-11-20T12:30:47;100012.75;;;9.64;96.54
71109;BME280;59614;51.012;-1.648;2022-11-20T12:36:47;100005.72;;;10.09;97.37
71109;BME280;59614;51.012;-1.648;2022-11-20T12:39:42;100004.13;;;10.00;96.84
71109;BME280;59614;51.012;-1.648;2022-11-20T12:48:22;100001.78;;;9.86;99.26
71109;BME280;59614;51.012;-1.648;2022-11-20T12:51:18;99987.72;;;9.85;100.00
71109;BME280;59614;51.012;-1.648;2022-11-20T12:53:54;99983.44;;;9.80;99.72
71109;BME280;59614;51.012;-1.648;2022-11-20T12:56:46;99976.75;;;9.63;98.79
71109;BME280;59614;51.012;-1.648;2022-11-20T13:01:58;99962.75;;;9.61;100.00
71109;BME280;59614;51.012;-1.648;2022-11-20T13:07:29;99948.72;;;9.61;100.00
71109;BME280;59614;51.012;-1.648;2022-11-20T13:09:56;99950.41;;;9.63;100.00
71109;BME280;59614;51.012;-1.648;2022-11-20T13:12:37;99958.19;;;9.69;100.00
71109;BME280;59614;51.012;-1.648;2022-11-20T13:15:54;99946.69;;;9.73;100.00
71109;BME280;59614;51.012;-1.648;2022-11-20T13:18:13;99937.81;;;9.78;100.00
71109;BME280;59614;51.012;-1.648;2022-11-20T13:20:43;99929.97;;;9.74;100.00
71109;BME280;59614;51.012;-1.648;2022-11-20T13:23:09;99921.34;;;9.68;98.06
71109;BME280;59614;51.012;-1.648;2022-11-20T13:25:37;99916.91;;;10.11;98.81
71109;BME280;59614;51.012;-1.648;2022-11-20T13:28:26;99925.22;;;10.31;98.47
71109;BME280;59614;51.012;-1.648;2022-11-20T13:30:52;99917.09;;;10.41;96.18
71109;BME280;59614;51.012;-1.648;2022-11-20T13:38:44;99936.66;;;10.30;96.61
71109;BME280;59614;51.012;-1.648;2022-11-20T13:41:11;99929.72;;;10.26;94.31
71109;BME280;59614;51.012;-1.648;2022-11-20T13:49:21;99947.47;;;9.77;94.93
71109;BME280;59614;51.012;-1.648;2022-11-20T13:51:50;99954.66;;;9.70;94.66
71109;BME280;59614;51.012;-1.648;2022-11-20T13:56:48;99948.47;;;9.71;93.17
71109;BME280;59614;51.012;-1.648;2022-11-20T14:00:11;99946.97;;;9.60;94.10
71109;BME280;59614;51.012;-1.648;2022-11-20T14:02:29;99943.34;;;9.65;92.31
71109;BME280;59614;51.012;-1.648;2022-11-20T14:04:58;99932.47;;;9.81;91.49
71109;BME280;59614;51.012;-1.648;2022-11-20T14:07:31;99939.09;;;10.00;93.56
71109;BME280;59614;51.012;-1.648;2022-11-20T14:09:58;99939.38;;;9.88;90.35
71109;BME280;59614;51.012;-1.648;2022-11-20T14:12:29;99937.72;;;9.82;94.37
71109;BME280;59614;51.012;-1.648;2022-11-20T14:14:56;99935.19;;;9.78;92.13
71109;BME280;59614;51.012;-1.648;2022-11-20T14:17:24;99941.28;;;9.80;94.49
71109;BME280;59614;51.012;-1.648;2022-11-20T14:19:51;99932.91;;;9.59;91.42
71109;BME280;59614;51.012;-1.648;2022-11-20T14:22:22;99941.72;;;9.58;90.36
71109;BME280;59614;51.012;-1.648;2022-11-20T14:27:45;99933.00;;;9.54;90.78
71109;BME280;59614;51.012;-1.648;2022-11-20T14:30:15;99912.69;;;9.61;89.14
71109;BME280;59614;51.012;-1.648;2022-11-20T14:32:42;99930.31;;;9.57;88.96
71109;BME280;59614;51.012;-1.648;2022-11-20T14:35:13;99922.63;;;9.47;88.54
71109;BME280;59614;51.012;-1.648;2022-11-20T14:37:40;99933.00;;;9.56;87.12
71109;BME280;59614;51.012;-1.648;2022-11-20T14:40:24;99931.19;;;9.58;87.98